Time;durP1;ratioP1;P1;durP2;ratioP2;P2;SDS_P1;SDS_P2;PMS_P1;PMS_P2;Temp;Humidity;BMP_temperature;BMP_pressure;BME280_temperature;BME280_humidity;BME280_pressure;Samples;Min_cycle;Max_cycle;Signal;HPM_P1;HPM_P2
2020/12/03 00:01:42;;;;;;;22.13;14.78;;;;;;;5.11;57.60;101782.13;1801936;78;21078;-78
2020/12/03 00:04:10;;;;;;;26.12;15.48;;;;;;;5.11;57.52;101783.45;1806710;78;21488;-79
2020/12/03 00:06:47;;;;;;;26.95;15.00;;;;;;;5.09;57.53;101774.27;1809252;78;21105;-78
2020/12/03 00:09:18;;;;;;;26.05;14.95;;;;;;;5.65;56.32;101775.77;1797219;78;21112;-76
2020/12/03 00:11:51;;;;;;;27.07;16.00;;;;;;;5.74;55.95;101779.20;1810328;78;21328;-77
2020/12/03 00:14:20;;;;;;;30.02;16.00;;;;;;;5.74;55.78;101779.20;1807904;78;21501;-78
2020/12/03 00:16:53;;;;;;;32.25;15.80;;;;;;;5.71;55.63;101776.23;1782796;78;21046;-77
2020/12/03 00:19:24;;;;;;;34.40;18.17;;;;;;;5.75;55.74;101775.58;1781836;80;21169;-77
2020/12/03 00:21:59;;;;;;;31.82;16.90;;;;;;;5.82;55.70;101784.42;1781805;80;21158;-77
2020/12/03 00:24:30;;;;;;;32.28;17.50;;;;;;;5.82;55.61;101787.56;1783206;78;21431;-79
2020/12/03 00:27:08;;;;;;;22.27;12.98;;;;;;;5.83;55.47;101786.13;1813826;78;21117;-77
2020/12/03 00:29:36;;;;;;;37.93;18.98;;;;;;;5.82;55.40;101784.90;1810020;78;21145;-78
2020/12/03 00:32:21;;;;;;;46.53;23.15;;;;;;;5.77;55.43;101786.99;1806279;78;21046;-78
2020/12/03 00:34:49;;;;;;;40.20;22.73;;;;;;;5.70;55.56;101790.48;1817055;78;21566;-77
2020/12/03 00:37:16;;;;;;;35.52;20.00;;;;;;;5.69;55.78;101791.92;1803788;78;21770;-77
2020/12/03 00:39:44;;;;;;;27.67;17.02;;;;;;;5.64;55.79;101788.69;1807305;78;21169;-78
2020/12/03 00:42:12;;;;;;;24.70;15.30;;;;;;;5.53;55.86;101782.20;1815030;78;21057;-77
2020/12/03 00:44:40;;;;;;;28.65;15.98;;;;;;;5.48;56.00;101785.62;1818931;78;21074;-79
2020/12/03 00:47:08;;;;;;;27.60;16.62;;;;;;;5.42;56.02;101782.02;1801188;78;21094;-77
2020/12/03 00:49:36;;;;;;;24.37;14.47;;;;;;;5.40;56.07;101781.23;1805426;78;21348;-80
2020/12/03 00:52:04;;;;;;;24.18;14.23;;;;;;;5.43;55.88;101783.72;1812540;78;21475;-77
2020/12/03 00:54:32;;;;;;;21.75;14.30;;;;;;;5.51;55.87;101778.80;1821135;78;21057;-77
2020/12/03 00:57:00;;;;;;;21.17;12.88;;;;;;;5.57;55.65;101778.41;1788865;78;21168;-77
2020/12/03 00:59:28;;;;;;;20.90;13.25;;;;;;;5.58;55.37;101770.81;1782726;80;21090;-77
2020/12/03 01:01:56;;;;;;;26.55;15.85;;;;;;;5.57;55.26;101770.44;1782059;80;22186;-77
2020/12/03 01:04:24;;;;;;;25.08;14.10;;;;;;;5.58;55.22;101769.96;1781372;80;21620;-77
2020/12/03 01:06:51;;;;;;;23.18;14.30;;;;;;;5.58;55.10;101764.17;1782395;80;21044;-77
2020/12/03 01:09:20;;;;;;;21.37;12.85;;;;;;;5.58;55.11;101768.16;1782776;80;21066;-77
2020/12/03 01:11:48;;;;;;;28.30;15.53;;;;;;;5.55;55.11;101765.70;1782691;80;21129;-77
2020/12/03 01:14:17;;;;;;;24.80;14.60;;;;;;;5.54;55.33;101770.65;1782762;80;21349;-77
2020/12/03 01:16:46;;;;;;;27.13;15.68;;;;;;;5.56;55.37;101768.73;1782695;80;21180;-77
2020/12/03 01:19:14;;;;;;;32.03;17.50;;;;;;;5.56;55.37;101769.22;1782856;80;21057;-77
2020/12/03 01:21:41;;;;;;;26.85;15.93;;;;;;;5.57;55.49;101766.94;1782784;80;21062;-77
2020/12/03 01:24:09;;;;;;;27.90;15.98;;;;;;;5.62;55.48;101760.00;1782759;80;21050;-77
2020/12/03 01:26:37;;;;;;;26.42;14.25;;;;;;;5.69;55.67;101766.19;1782793;80;21187;-77
2020/12/03 01:29:05;;;;;;;22.58;13.65;;;;;;;5.77;55.60;101760.41;1782660;80;21186;-77
2020/12/03 01:31:33;;;;;;;22.13;12.68;;;;;;;5.82;55.35;101758.31;1782780;80;21042;-77
2020/12/03 01:34:00;;;;;;;20.05;10.68;;;;;;;5.88;55.18;101764.56;1782740;80;21504;-77
2020/12/03 01:36:30;;;;;;;17.35;10.82;;;;;;;5.87;54.96;101760.20;1782755;80;21117;-77
2020/12/03 01:38:58;;;;;;;19.32;12.05;;;;;;;5.86;54.89;101759.83;1782750;80;21791;-77
2020/12/03 01:41:25;;;;;;;22.60;13.10;;;;;;;5.80;54.83;101753.55;1782650;80;21118;-76
2020/12/03 01:43:53;;;;;;;26.48;13.50;;;;;;;5.78;54.84;101746.16;1782730;80;21033;-76
2020/12/03 01:46:21;;;;;;;21.75;13.18;;;;;;;5.82;54.81;101740.55;1782819;80;21509;-76
2020/12/03 01:48:54;;;;;;;23.00;13.40;;;;;;;5.85;54.81;101739.48;1782854;80;21560;-76
2020/12/03 01:51:30;;;;;;;22.20;13.80;;;;;;;5.89;54.72;101741.00;1782864;80;21793;-76
2020/12/03 01:54:00;;;;;;;20.62;12.82;;;;;;;5.89;54.56;101737.02;1782228;80;21140;-75
2020/12/03 01:56:58;;;;;;;25.50;14.78;;;;;;;5.85;54.56;101728.85;1782792;80;21105;-76
2020/12/03 01:59:30;;;;;;;23.98;13.45;;;;;;;5.76;54.60;101727.63;1782827;80;21548;-76
2020/12/03 02:01:59;;;;;;;23.55;14.58;;;;;;;5.68;54.75;101732.59;1782869;80;21565;-76
2020/12/03 02:04:27;;;;;;;20.15;12.68;;;;;;;5.68;54.82;101734.36;1782743;80;21792;-77
2020/12/03 02:07:02;;;;;;;27.95;14.75;;;;;;;5.70;54.68;101732.00;1758621;80;21148;-76
2020/12/03 02:09:30;;;;;;;24.32;14.00;;;;;;;5.67;54.64;101740.16;1782441;80;21046;-77
2020/12/03 02:12:00;;;;;;;25.50;14.55;;;;;;;5.57;54.58;101739.88;1782647;80;21126;-77
2020/12/03 02:14:28;;;;;;;24.50;14.23;;;;;;;5.51;54.72;101735.42;1782821;80;21579;-77
2020/12/03 02:16:56;;;;;;;26.45;15.28;;;;;;;5.52;54.76;101735.32;1782821;80;22239;-77
2020/12/03 02:19:32;;;;;;;25.43;14.55;;;;;;;5.51;54.80;101733.62;1782638;80;21165;-77
2020/12/03 02:22:03;;;;;;;23.98;14.85;;;;;;;5.49;54.87;101737.30;1782739;80;21089;-77
2020/12/03 02:24:40;;;;;;;27.10;15.55;;;;;;;5.46;54.87;101733.05;1782778;80;21046;-77
2020/12/03 02:27:11;;;;;;;30.40;15.88;;;;;;;5.46;54.93;101733.05;1783039;80;21104;-76
2020/12/03 02:29:39;;;;;;;26.52;15.40;;;;;;;5.53;54.86;101731.70;1782733;80;21360;-78
2020/12/03 02:32:08;;;;;;;26.25;14.90;;;;;;;5.58;54.78;101734.93;1802964;78;21122;-75
2020/12/03 02:34:36;;;;;;;29.85;16.75;;;;;;;5.63;54.67;101735.97;1815228;78;21105;-79
2020/12/03 02:37:05;;;;;;;32.25;17.35;;;;;;;5.65;54.52;101734.09;1818607;78;21140;-76
2020/12/03 02:39:34;;;;;;;26.93;14.68;;;;;;;5.64;54.45;101738.19;1814205;78;21049;-77
2020/12/03 02:42:04;;;;;;;33.02;18.15;;;;;;;5.58;54.51;101734.93;1818703;78;21364;-76
2020/12/03 02:44:32;;;;;;;29.50;17.07;;;;;;;5.57;54.59;101737.22;1819288;78;21148;-77
2020/12/03 02:47:00;;;;;;;31.07;19.45;;;;;;;5.58;54.70;101744.23;1818296;78;21101;-77
2020/12/03 02:49:28;;;;;;;33.67;19.87;;;;;;;5.56;54.73;101736.84;1818770;78;21108;-76
2020/12/03 02:51:58;;;;;;;32.05;19.85;;;;;;;5.49;54.87;101739.48;1815857;78;21164;-77
2020/12/03 02:54:27;;;;;;;32.30;18.52;;;;;;;5.41;55.01;101733.81;1818287;78;21081;-76
2020/12/03 02:56:54;;;;;;;29.35;15.45;;;;;;;5.34;55.19;101742.61;1815167;78;21161;-76
2020/12/03 02:59:22;;;;;;;30.10;19.02;;;;;;;5.25;55.39;101744.97;1818467;78;21043;-76
2020/12/03 03:01:52;;;;;;;30.25;18.40;;;;;;;5.16;55.61;101746.38;1817327;78;21043;-77
2020/12/03 03:04:19;;;;;;;31.20;16.90;;;;;;;5.08;55.91;101741.52;1815938;79;21030;-75
2020/12/03 03:06:48;;;;;;;32.13;17.75;;;;;;;5.04;56.09;101734.70;1815913;78;21372;-79
2020/12/03 03:09:16;;;;;;;34.65;19.12;;;;;;;5.05;56.11;101735.08;1815797;79;21132;-78
2020/12/03 03:11:45;;;;;;;35.40;20.52;;;;;;;5.03;56.25;101736.09;1815759;79;21129;-75
2020/12/03 03:14:14;;;;;;;31.62;18.10;;;;;;;5.07;56.39;101739.81;1815968;79;21499;-78
2020/12/03 03:16:42;;;;;;;34.88;19.62;;;;;;;5.13;56.41;101741.72;1816027;79;21488;-78
2020/12/03 03:19:11;;;;;;;35.68;19.67;;;;;;;5.10;56.45;101746.75;1815731;79;21786;-78
2020/12/03 03:21:39;;;;;;;31.10;17.87;;;;;;;5.04;56.54;101749.75;1815956;79;21525;-79
2020/12/03 03:24:07;;;;;;;53.75;25.57;;;;;;;5.03;56.72;101747.58;1817495;78;21097;-75
2020/12/03 03:26:36;;;;;;;41.33;19.45;;;;;;;4.99;56.71;101746.04;1818950;78;21160;-77
2020/12/03 03:29:06;;;;;;;50.55;24.18;;;;;;;4.91;56.88;101747.47;1814711;78;21050;-76
2020/12/03 03:31:35;;;;;;;37.78;18.67;;;;;;;4.86;57.04;101744.20;1819806;78;21140;-75
2020/12/03 03:34:03;;;;;;;38.28;20.50;;;;;;;4.85;57.21;101749.98;1819817;78;21078;-75
2020/12/03 03:36:31;;;;;;;41.02;20.80;;;;;;;4.82;57.35;101746.20;1797776;78;21054;-75
2020/12/03 03:38:59;;;;;;;37.53;19.73;;;;;;;4.82;57.40;101755.02;1789426;80;21129;-76
2020/12/03 03:41:27;;;;;;;48.45;25.80;;;;;;;4.80;57.52;101748.92;1808935;78;21081;-77
2020/12/03 03:43:54;;;;;;;38.45;19.82;;;;;;;4.81;57.65;101751.98;1815289;79;21307;-77
2020/12/03 03:46:23;;;;;;;42.05;22.20;;;;;;;4.80;57.61;101754.71;1818450;78;21547;-76
2020/12/03 03:48:50;;;;;;;39.65;21.25;;;;;;;4.75;57.68;101751.47;1811485;78;21157;-77
2020/12/03 03:51:18;;;;;;;41.15;21.50;;;;;;;4.74;57.80;101752.42;1820009;78;21185;-77
2020/12/03 03:53:46;;;;;;;31.95;19.10;;;;;;;4.77;57.86;101746.95;1820076;78;21117;-76
2020/12/03 03:56:14;;;;;;;43.08;23.12;;;;;;;4.83;57.79;101746.58;1788127;78;22594;-77
2020/12/03 03:58:42;;;;;;;44.70;25.37;;;;;;;4.86;57.78;101741.10;1788453;80;21521;-78
2020/12/03 04:01:09;;;;;;;36.00;21.10;;;;;;;4.90;57.76;101736.44;1816669;78;21509;-76
2020/12/03 04:03:37;;;;;;;40.10;23.75;;;;;;;4.92;57.65;101738.55;1815985;78;21159;-76
2020/12/03 04:06:05;;;;;;;35.63;22.50;;;;;;;4.92;57.70;101736.75;1819557;78;21184;-77
2020/12/03 04:08:33;;;;;;;51.35;28.38;;;;;;;4.98;57.67;101743.48;1821071;78;21751;-77
2020/12/03 04:11:00;;;;;;;57.43;33.13;;;;;;;4.98;57.59;101741.69;1820883;78;21122;-76
2020/12/03 04:13:28;;;;;;;65.22;38.08;;;;;;;5.06;57.50;101741.23;1816339;78;21170;-77
2020/12/03 04:15:55;;;;;;;67.37;39.40;;;;;;;5.10;57.43;101733.47;1804961;78;22340;-76
2020/12/03 04:18:26;;;;;;;66.02;38.23;;;;;;;5.14;57.36;101732.34;1791959;78;21625;-77
2020/12/03 04:20:57;;;;;;;54.75;30.15;;;;;;;5.18;57.13;101734.32;1811411;78;21799;-76
2020/12/03 04:23:25;;;;;;;58.23;32.98;;;;;;;5.19;57.06;101729.41;1817577;78;21216;-77
2020/12/03 04:25:53;;;;;;;61.40;33.53;;;;;;;5.28;56.92;101731.52;1814489;78;21134;-76
2020/12/03 04:28:20;;;;;;;60.23;34.67;;;;;;;5.24;57.08;101732.17;1818225;78;21033;-77
2020/12/03 04:30:48;;;;;;;62.35;37.33;;;;;;;5.44;56.67;101740.72;1817324;78;21642;-76
2020/12/03 04:33:16;;;;;;;88.30;49.13;;;;;;;5.53;56.37;101730.86;1817151;78;22779;-76
2020/12/03 04:35:44;;;;;;;65.42;39.58;;;;;;;5.60;56.19;101732.20;1818853;78;21707;-76
2020/12/03 04:38:14;;;;;;;62.50;35.92;;;;;;;5.60;55.94;101741.02;1818754;78;21137;-76
2020/12/03 04:40:43;;;;;;;66.65;31.80;;;;;;;5.49;55.83;101737.30;1819400;78;21184;-76
2020/12/03 04:43:42;;;;;;;50.85;27.73;;;;;;;5.35;56.00;101730.17;1813442;78;21588;-76
2020/12/03 04:46:32;;;;;;;48.48;29.12;;;;;;;5.30;56.01;101730.45;1795074;78;22180;-78
2020/12/03 04:49:39;;;;;;;46.65;25.52;;;;;;;5.33;56.16;101726.77;1819533;78;21228;-76
2020/12/03 04:52:28;;;;;;;47.62;25.43;;;;;;;5.39;55.98;101725.53;1816741;78;21171;-78
2020/12/03 04:55:08;;;;;;;43.70;22.50;;;;;;;5.37;55.83;101726.97;1801272;78;21162;-78
2020/12/03 04:57:40;;;;;;;41.98;22.90;;;;;;;5.38;55.94;101725.16;1817498;78;21205;-76
2020/12/03 05:00:39;;;;;;;53.65;25.23;;;;;;;5.44;55.82;101724.30;1818727;78;21792;-76
2020/12/03 05:03:33;;;;;;;59.45;27.93;;;;;;;5.48;55.72;101720.51;1820030;78;21156;-79
2020/12/03 05:06:55;;;;;;;50.10;25.55;;;;;;;5.50;55.60;101709.80;1820332;78;21258;-78
2020/12/03 05:09:37;;;;;;;47.15;23.95;;;;;;;5.52;55.53;101716.72;1821121;78;21058;-76
2020/12/03 05:12:18;;;;;;;53.65;26.07;;;;;;;5.55;55.42;101713.88;1813409;78;21178;-77
2020/12/03 05:15:05;;;;;;;46.95;24.57;;;;;;;5.57;55.46;101724.41;1804647;79;21424;-77
2020/12/03 05:17:57;;;;;;;46.35;23.57;;;;;;;5.58;55.46;101720.31;1819179;78;21110;-76
2020/12/03 05:20:50;;;;;;;52.53;26.02;;;;;;;5.58;55.40;101720.80;1821014;77;21157;-79
2020/12/03 05:23:24;;;;;;;48.23;22.55;;;;;;;5.44;55.52;101722.13;1820629;78;21483;-77
2020/12/03 05:25:54;;;;;;;50.63;25.82;;;;;;;5.42;55.54;101723.55;1821210;78;22198;-77
2020/12/03 05:28:36;;;;;;;57.58;27.02;;;;;;;5.30;55.71;101735.77;1803019;78;22215;-76
2020/12/03 05:31:18;;;;;;;75.37;35.40;;;;;;;5.38;55.74;101737.12;1803004;78;21176;-76
2020/12/03 05:33:46;;;;;;;61.40;29.60;;;;;;;5.35;55.67;101741.66;1810452;78;21204;-77
2020/12/03 05:36:29;;;;;;;62.48;30.10;;;;;;;5.25;55.79;101746.30;1804241;78;21234;-76
2020/12/03 05:38:59;;;;;;;52.20;26.42;;;;;;;5.20;55.95;101751.04;1808578;78;21101;-78
2020/12/03 05:41:33;;;;;;;57.62;29.42;;;;;;;5.16;56.07;101753.02;1810554;78;21433;-77
2020/12/03 05:44:08;;;;;;;59.58;30.80;;;;;;;5.13;56.12;101753.19;1762569;80;21128;-77
2020/12/03 05:46:35;;;;;;;58.63;29.18;;;;;;;5.11;56.33;101751.59;1761158;80;21444;-76
2020/12/03 05:49:05;;;;;;;50.75;24.67;;;;;;;5.15;56.31;101755.77;1772230;78;21509;-77
2020/12/03 05:51:33;;;;;;;59.90;28.98;;;;;;;5.18;56.33;101755.57;1791313;78;21116;-77
2020/12/03 05:54:04;;;;;;;51.20;23.67;;;;;;;5.13;56.21;101754.99;1820471;78;21377;-77
2020/12/03 05:56:32;;;;;;;46.80;21.85;;;;;;;5.05;56.23;101762.11;1817643;78;21636;-77
2020/12/03 05:59:18;;;;;;;46.95;22.27;;;;;;;4.95;56.35;101759.14;1812772;78;21438;-77
2020/12/03 06:02:07;;;;;;;49.73;23.55;;;;;;;4.89;56.49;101754.65;1810310;78;21127;-77
2020/12/03 06:04:41;;;;;;;;;;;;;;;4.91;56.72;101760.27;1802574;78;21097;-79
2020/12/03 06:07:17;;;;;;;48.55;22.77;;;;;;;4.91;56.59;101770.03;1818659;78;21059;-76
2020/12/03 06:10:01;;;;;;;53.20;24.87;;;;;;;4.78;56.81;101771.22;1800581;78;21097;-76
2020/12/03 06:12:57;;;;;;;45.50;20.62;;;;;;;4.70;56.96;101767.66;1811595;78;21152;-76
2020/12/03 06:15:48;;;;;;;52.45;23.85;;;;;;;4.67;57.13;101776.27;1806289;78;21097;-79
2020/12/03 06:18:37;;;;;;;50.90;25.15;;;;;;;4.62;57.20;101769.05;1801355;78;21116;-78
2020/12/03 06:21:59;;;;;;;57.60;27.42;;;;;;;4.62;57.37;101775.20;1783576;78;21381;-76
2020/12/03 06:24:41;;;;;;;49.00;23.02;;;;;;;4.67;57.41;101774.94;1750698;80;21166;-79
2020/12/03 06:27:45;;;;;;;66.00;37.87;;;;;;;4.74;57.47;101776.31;1861307;74;27358;-77
2020/12/03 06:30:23;;;;;;;52.13;25.35;;;;;;;4.75;57.40;101778.86;1834662;75;21205;-78
2020/12/03 06:33:11;;;;;;;70.05;31.82;;;;;;;4.77;57.19;101786.77;1771804;78;21572;-77
2020/12/03 06:35:51;;;;;;;66.82;33.42;;;;;;;4.73;57.22;101782.57;1767302;77;21125;-78
2020/12/03 06:38:39;;;;;;;80.80;39.40;;;;;;;4.71;57.22;101779.98;1793830;77;21122;-77
2020/12/03 06:41:57;;;;;;;82.95;39.30;;;;;;;4.76;57.12;101771.75;1768211;79;21130;-78
2020/12/03 06:44:53;;;;;;;72.15;33.63;;;;;;;4.80;57.09;101775.95;1796301;77;21094;-78
2020/12/03 06:47:47;;;;;;;73.42;34.23;;;;;;;4.89;56.86;101775.41;1776136;78;21394;-78
2020/12/03 06:50:32;;;;;;;65.87;32.50;;;;;;;4.84;56.98;101782.80;1795790;77;21105;-78
2020/12/03 06:53:39;;;;;;;79.05;39.08;;;;;;;4.84;57.04;101785.45;1779986;78;21555;-78
2020/12/03 06:56:29;;;;;;;95.87;42.78;;;;;;;4.84;57.05;101780.98;1778089;80;21092;-77
2020/12/03 06:59:12;;;;;;;79.42;37.38;;;;;;;4.86;57.08;101790.22;1762174;80;21534;-78
2020/12/03 07:02:27;;;;;;;59.10;27.58;;;;;;;4.89;57.12;101792.67;1763210;78;21363;-78
2020/12/03 07:05:40;;;;;;;61.35;29.25;;;;;;;4.86;57.03;101794.20;1757367;80;21121;-77
2020/12/03 07:08:14;;;;;;;63.10;30.92;;;;;;;4.83;57.15;101785.07;1772710;78;21112;-77
2020/12/03 07:11:33;;;;;;;68.30;31.35;;;;;;;4.90;57.18;101780.25;1777497;79;21113;-78
2020/12/03 07:14:19;;;;;;;59.67;29.65;;;;;;;4.99;57.04;101788.52;1780116;79;21114;-78
2020/12/03 07:17:13;;;;;;;67.55;30.92;;;;;;;5.02;56.75;101794.14;1774999;79;21428;-78
2020/12/03 07:20:02;;;;;;;55.38;27.02;;;;;;;4.97;56.74;101789.58;1779817;79;21411;-77
2020/12/03 07:22:49;;;;;;;62.27;26.20;;;;;;;4.97;56.69;101788.25;1772477;79;21925;-77
2020/12/03 07:25:19;;;;;;;55.95;28.40;;;;;;;4.96;56.52;101786.08;1766620;79;21166;-77
2020/12/03 07:28:18;;;;;;;52.27;24.18;;;;;;;5.00;56.50;101788.08;1769364;79;21115;-78
2020/12/03 07:30:55;;;;;;;55.15;26.95;;;;;;;5.03;56.50;101790.53;1787634;79;22446;-77
2020/12/03 07:33:58;;;;;;;;;;;;;;;4.98;56.56;101792.13;1789625;79;21569;-77
2020/12/03 07:36:43;;;;;;;60.60;29.55;;;;;;;4.98;56.59;101791.28;1790956;78;20231;-77
2020/12/03 07:39:24;;;;;;;57.05;26.93;;;;;;;4.92;56.60;101793.83;1835489;75;21936;-78
2020/12/03 07:42:00;;;;;;;59.63;27.45;;;;;;;4.82;56.69;101793.98;1832205;76;21117;-77
2020/12/03 07:44:44;;;;;;;62.62;29.82;;;;;;;4.63;57.27;101801.27;1807664;77;22066;-77
2020/12/03 07:47:33;;;;;;;68.65;30.72;;;;;;;4.56;57.44;101805.60;1808325;78;21174;-78
2020/12/03 07:50:05;;;;;;;39.88;18.07;;;;;;;4.61;57.62;101808.47;1806332;77;21103;-78
2020/12/03 07:52:37;;;;;;;74.17;30.05;;;;;;;4.82;57.27;101812.56;1780018;78;21121;-78
2020/12/03 07:55:27;;;;;;;53.90;26.57;;;;;;;4.76;57.38;101818.20;1794651;77;21571;-78
2020/12/03 07:57:59;;;;;;;64.15;28.25;;;;;;;4.71;57.32;101810.50;1806518;78;21386;-78
2020/12/03 08:00:45;;;;;;;61.60;28.10;;;;;;;4.68;57.37;101812.47;1804326;77;21151;-77
2020/12/03 08:03:40;;;;;;;68.92;30.05;;;;;;;4.68;57.44;101809.81;1807890;78;21101;-77
2020/12/03 08:06:16;;;;;;;67.12;28.92;;;;;;;4.73;57.51;101802.48;1813839;78;21074;-77
2020/12/03 08:09:05;;;;;;;69.45;30.80;;;;;;;4.82;57.53;101801.95;1808410;77;21116;-77
2020/12/03 08:11:58;;;;;;;93.42;41.42;;;;;;;4.87;57.42;101796.37;1812268;77;21686;-77
2020/12/03 08:14:38;;;;;;;81.45;35.30;;;;;;;5.01;57.17;101795.09;1810977;78;21101;-77
2020/12/03 08:17:17;;;;;;;79.65;36.00;;;;;;;4.96;57.06;101792.71;1815873;78;21104;-77
2020/12/03 08:20:06;;;;;;;67.50;32.83;;;;;;;5.04;57.08;101797.11;1863973;75;22896;-77
2020/12/03 08:22:41;;;;;;;62.95;28.23;;;;;;;5.02;56.95;101795.00;1833555;76;21177;-76
2020/12/03 08:25:27;;;;;;;78.42;37.93;;;;;;;4.99;56.87;101792.51;1841983;77;21373;-76
2020/12/03 08:28:01;;;;;;;71.25;33.20;;;;;;;4.98;56.96;101790.80;1840641;77;21455;-77
2020/12/03 08:30:37;;;;;;;88.72;39.50;;;;;;;4.97;56.95;101782.47;1835668;77;21096;-76
2020/12/03 08:33:17;;;;;;;90.15;43.20;;;;;;;4.96;56.98;101786.08;1838967;77;21496;-78
2020/12/03 08:35:54;;;;;;;87.15;40.55;;;;;;;4.94;57.08;101778.66;1760264;80;21495;-79
2020/12/03 08:38:29;;;;;;;81.95;36.38;;;;;;;4.93;57.17;101776.95;1772647;79;21222;-79
2020/12/03 08:41:00;;;;;;;74.60;34.58;;;;;;;4.95;57.22;101781.72;1797184;79;21169;-78
2020/12/03 08:43:27;;;;;;;77.20;36.15;;;;;;;4.97;57.22;101776.30;1750062;80;21194;-77
2020/12/03 08:46:13;;;;;;;71.53;33.63;;;;;;;5.02;57.30;101776.41;1771124;79;21248;-77
2020/12/03 08:48:39;;;;;;;77.27;38.48;;;;;;;5.08;57.14;101773.38;1775689;79;21161;-77
2020/12/03 08:51:10;;;;;;;83.82;38.90;;;;;;;5.07;57.16;101772.16;1777837;79;21801;-76
2020/12/03 08:53:39;;;;;;;73.30;34.88;;;;;;;5.10;57.14;101773.31;1791807;79;21110;-77
2020/12/03 08:56:17;;;;;;;72.92;33.80;;;;;;;5.05;56.89;101768.27;1788001;79;21122;-77
2020/12/03 08:59:03;;;;;;;66.55;29.45;;;;;;;5.03;56.80;101768.81;1785351;78;21137;-79
2020/12/03 09:01:36;;;;;;;70.45;31.35;;;;;;;5.03;56.95;101762.18;1751785;80;21110;-78
2020/12/03 09:04:05;;;;;;;67.22;30.95;;;;;;;5.13;56.94;101753.66;1793448;78;21434;-78
2020/12/03 09:06:47;;;;;;;69.55;34.08;;;;;;;5.19;56.85;101751.99;1762350;79;21153;-77
2020/12/03 09:09:19;;;;;;;63.30;29.92;;;;;;;5.23;56.78;101746.41;1788902;79;21157;-75
2020/12/03 09:11:47;;;;;;;64.42;31.40;;;;;;;5.30;56.97;101750.86;1790250;79;21137;-75
2020/12/03 09:14:15;;;;;;;62.17;30.20;;;;;;;5.52;57.09;101743.30;1790507;79;21133;-74
2020/12/03 09:16:45;;;;;;;50.92;24.65;;;;;;;5.67;57.05;101747.28;1789069;78;21490;-75
2020/12/03 09:19:26;;;;;;;67.65;31.90;;;;;;;5.84;56.80;101735.13;1731340;78;21148;-76
2020/12/03 09:21:55;;;;;;;72.27;35.65;;;;;;;6.05;56.13;101741.79;1781663;79;21156;-76
2020/12/03 09:24:24;;;;;;;57.70;27.95;;;;;;;6.27;56.27;101743.09;1747129;80;21128;-77
2020/12/03 09:26:57;;;;;;;59.10;30.00;;;;;;;6.55;55.39;101741.66;1772668;79;21465;-77
2020/12/03 09:29:25;;;;;;;49.83;25.52;;;;;;;6.68;54.94;101740.86;1774054;79;21443;-76
2020/12/03 09:32:00;;;;;;;53.35;28.10;;;;;;;6.77;54.31;101737.09;1792708;79;21165;-74
2020/12/03 09:34:29;;;;;;;56.92;27.02;;;;;;;6.72;53.68;101730.35;1791204;78;21109;-75
2020/12/03 09:37:04;;;;;;;58.90;26.70;;;;;;;6.68;53.63;101723.55;1788676;78;21106;-77
2020/12/03 09:39:33;;;;;;;50.40;22.65;;;;;;;6.74;53.68;101724.46;1764267;78;21094;-75
2020/12/03 09:42:02;;;;;;;48.28;24.05;;;;;;;6.90;53.57;101725.60;1797072;78;21277;-75
2020/12/03 09:44:35;;;;;;;57.50;26.30;;;;;;;7.06;53.42;101709.81;1767127;78;21133;-76
2020/12/03 09:47:09;;;;;;;60.98;28.55;;;;;;;7.26;53.35;101716.91;1771350;79;22026;-75
2020/12/03 09:49:39;;;;;;;52.58;25.97;;;;;;;7.44;52.62;101718.30;1769437;79;21154;-77
2020/12/03 09:52:10;;;;;;;64.82;28.70;;;;;;;7.52;52.21;101716.44;1764482;79;21573;-75
2020/12/03 09:54:38;;;;;;;78.97;36.20;;;;;;;7.63;52.06;101711.22;1768461;79;21209;-76
2020/12/03 09:57:11;;;;;;;97.78;49.65;;;;;;;7.63;51.51;101697.89;1766058;80;21143;-77
2020/12/03 09:59:40;;;;;;;78.00;39.23;;;;;;;7.66;51.01;101694.14;1759968;80;21109;-77
2020/12/03 10:02:15;;;;;;;69.22;34.05;;;;;;;7.52;50.77;101693.78;1766274;80;21145;-77
2020/12/03 10:05:14;;;;;;;67.35;33.53;;;;;;;7.27;50.95;101697.33;1766002;80;21117;-78
2020/12/03 10:07:57;;;;;;;61.30;32.80;;;;;;;7.09;51.18;101694.97;1769125;79;21137;-79
2020/12/03 10:11:08;;;;;;;68.40;38.42;;;;;;;6.83;51.48;101699.39;1753888;79;21576;-77
2020/12/03 10:14:04;;;;;;;75.85;36.88;;;;;;;6.47;52.10;101706.70;1766842;80;21113;-78
2020/12/03 10:16:35;;;;;;;72.05;34.60;;;;;;;6.27;52.85;101712.48;1771409;79;21109;-78
2020/12/03 10:19:05;;;;;;;70.32;34.00;;;;;;;6.18;53.17;101710.42;1769454;79;21470;-77
2020/12/03 10:21:39;;;;;;;62.58;31.15;;;;;;;6.14;53.34;101707.09;1769661;79;22921;-78
2020/12/03 10:24:19;;;;;;;62.83;31.85;;;;;;;6.17;53.45;101718.00;1761110;79;21148;-78
2020/12/03 10:27:25;;;;;;;75.08;34.90;;;;;;;6.07;53.59;101712.42;1764001;80;21135;-79
2020/12/03 10:30:07;;;;;;;59.75;28.10;;;;;;;5.95;53.72;101703.89;1762798;80;21153;-78
2020/12/03 10:32:35;;;;;;;66.37;31.50;;;;;;;5.89;54.08;101700.27;1789404;79;21168;-78
2020/12/03 10:35:04;;;;;;;63.63;29.72;;;;;;;5.91;54.24;101705.03;1725490;79;21392;-78
2020/12/03 10:37:38;;;;;;;69.12;31.77;;;;;;;5.99;54.18;101698.75;1770133;79;21150;-78
2020/12/03 10:40:15;;;;;;;78.28;35.55;;;;;;;6.00;54.13;101700.48;1795358;78;21144;-78
2020/12/03 10:43:00;;;;;;;78.30;34.67;;;;;;;6.01;54.05;101693.73;1771378;78;21082;-78
2020/12/03 10:45:34;;;;;;;63.40;29.60;;;;;;;6.04;54.09;101694.87;1748575;79;21121;-79
2020/12/03 10:48:25;;;;;;;71.15;29.18;;;;;;;6.02;54.20;101700.75;1770540;78;22046;-79
2020/12/03 10:51:11;;;;;;;71.77;31.95;;;;;;;6.07;54.34;101697.31;1743094;79;21133;-79
2020/12/03 10:53:46;;;;;;;77.10;33.60;;;;;;;6.08;54.33;101703.00;1774543;79;21090;-79
2020/12/03 10:56:15;;;;;;;68.45;31.42;;;;;;;6.14;54.38;101708.42;1767391;79;21120;-79
2020/12/03 10:59:03;;;;;;;56.50;26.60;;;;;;;6.17;54.33;101712.68;1779193;79;21129;-78
2020/12/03 11:01:29;;;;;;;65.92;29.20;;;;;;;6.15;54.15;101711.45;1771398;79;21359;-79
2020/12/03 11:04:07;;;;;;;71.67;32.95;;;;;;;6.07;54.41;101702.63;1742837;79;21676;-80
2020/12/03 11:06:35;;;;;;;76.22;36.90;;;;;;;6.17;54.25;101700.23;1772372;79;21129;-79
2020/12/03 11:09:04;;;;;;;75.55;34.25;;;;;;;6.22;54.11;101692.83;1769542;79;21564;-77
2020/12/03 11:11:37;;;;;;;63.85;29.20;;;;;;;6.23;54.01;101701.66;1768718;79;21100;-78
2020/12/03 11:14:11;;;;;;;61.55;29.05;;;;;;;6.18;53.95;101702.44;1765668;79;21451;-76
2020/12/03 11:16:46;;;;;;;56.88;26.35;;;;;;;6.13;53.94;101707.17;1774164;79;21121;-78
2020/12/03 11:19:16;;;;;;;65.03;29.80;;;;;;;5.92;53.95;101694.31;1762685;79;21510;-78
2020/12/03 11:21:59;;;;;;;62.05;27.75;;;;;;;5.92;53.95;101694.31;1775796;79;22035;-77
2020/12/03 11:24:32;;;;;;;73.87;31.33;;;;;;;5.85;54.46;101698.27;1785413;79;21709;-77
2020/12/03 11:27:01;;;;;;;64.72;30.65;;;;;;;5.79;54.76;101702.66;1770227;79;21359;-78
2020/12/03 11:29:35;;;;;;;66.10;29.37;;;;;;;5.76;54.86;101702.36;1774425;79;21129;-77
2020/12/03 11:32:03;;;;;;;68.83;31.45;;;;;;;5.40;55.66;101708.16;1773219;79;21141;-78
2020/12/03 11:34:37;;;;;;;76.65;35.13;;;;;;;5.78;54.90;101707.61;1771583;79;21120;-78
2020/12/03 11:37:06;;;;;;;66.90;32.42;;;;;;;5.75;54.87;101701.14;1769310;79;21079;-78
2020/12/03 11:39:34;;;;;;;58.75;28.98;;;;;;;5.70;55.03;101703.23;1761997;80;21204;-77
2020/12/03 11:50:16;;;;;;;73.72;34.63;;;;;;;4.87;57.02;101704.31;1788615;78;21181;-77
2020/12/03 11:52:45;;;;;;;68.95;31.23;;;;;;;4.74;57.30;101694.88;1769769;79;21485;-77
2020/12/03 11:55:23;;;;;;;72.00;32.40;;;;;;;4.70;57.61;101703.11;1765712;80;21962;-77
2020/12/03 11:57:51;;;;;;;56.42;26.35;;;;;;;4.64;57.70;101699.50;1769277;78;21117;-76
2020/12/03 12:00:21;;;;;;;48.60;24.40;;;;;;;5.25;56.38;101697.16;1776443;79;21656;-76
2020/12/03 12:03:07;;;;;;;;;;;;;;;;;;;;;
2020/12/03 12:16:37;;;;;;;62.30;29.87;;;;;;;5.37;55.83;101687.12;1820849;76;22759;-80
2020/12/03 12:19:07;;;;;;;63.83;31.68;;;;;;;5.36;55.86;101686.75;1787043;78;21247;-79